createdAt,value
2018-04-29T00:02:02.232Z,16.33
2018-04-29T00:04:29.891Z,16.37
2018-04-29T00:06:57.446Z,16.20
2018-04-29T00:09:24.992Z,17.23
2018-04-29T00:11:52.528Z,15.50
2018-04-29T00:14:20.828Z,15.83
2018-04-29T00:16:48.390Z,17.23
2018-04-29T00:19:15.978Z,16.60
2018-04-29T00:21:43.488Z,18.37
2018-04-29T00:24:11.079Z,18.20
2018-04-29T00:26:38.619Z,18.17
2018-04-29T00:29:06.179Z,17.80
2018-04-29T00:31:33.693Z,18.70
2018-04-29T00:34:02.124Z,18.43
2018-04-29T00:36:29.726Z,20.00
2018-04-29T00:38:57.249Z,18.10
2018-04-29T00:41:24.818Z,18.20
2018-04-29T00:43:52.929Z,19.37
2018-04-29T00:46:20.548Z,18.40
2018-04-29T00:48:48.176Z,17.97
2018-04-29T00:51:15.660Z,18.70
2018-04-29T00:53:43.258Z,20.40
2018-04-29T00:56:10.896Z,20.40
2018-04-29T00:58:38.432Z,20.10
2018-04-29T01:01:05.975Z,19.43
2018-04-29T01:03:33.503Z,21.50
2018-04-29T01:06:02.342Z,21.13
2018-04-29T01:08:29.911Z,20.23
2018-04-29T01:10:57.430Z,20.00
2018-04-29T01:13:25.732Z,19.77
2018-04-29T01:15:53.304Z,19.27
2018-04-29T01:18:20.868Z,20.17
2018-04-29T01:20:48.391Z,19.23
2018-04-29T01:23:15.976Z,19.80
2018-04-29T01:25:43.519Z,19.83
2018-04-29T01:28:11.047Z,21.60
2018-04-29T01:30:39.341Z,18.60
2018-04-29T01:33:06.942Z,19.80
2018-04-29T01:35:34.481Z,20.57
2018-04-29T01:38:02.033Z,19.37
2018-04-29T01:40:29.601Z,19.70
2018-04-29T01:42:57.129Z,21.07
2018-04-29T01:45:25.445Z,20.90
2018-04-29T01:47:53.008Z,21.20
2018-04-29T01:50:20.529Z,21.70
2018-04-29T01:52:48.049Z,20.03
2018-04-29T01:55:15.622Z,22.47
2018-04-29T01:57:43.932Z,21.80
2018-04-29T02:00:11.468Z,20.97
2018-04-29T02:02:39.773Z,21.30
2018-04-29T02:05:07.301Z,20.60
2018-04-29T02:07:35.590Z,20.00
2018-04-29T02:10:03.163Z,21.67
2018-04-29T02:12:30.697Z,20.10
2018-04-29T02:14:58.993Z,21.30
2018-04-29T02:17:26.541Z,20.80
2018-04-29T02:19:54.099Z,22.27
2018-04-29T02:22:21.654Z,20.90
2018-04-29T02:24:49.236Z,21.67
2018-04-29T02:27:16.793Z,20.73
2018-04-29T02:29:44.321Z,22.03
2018-04-29T02:32:12.649Z,22.93
2018-04-29T02:34:40.211Z,23.27
2018-04-29T02:37:07.753Z,22.37
2018-04-29T02:39:35.320Z,23.17
2018-04-29T02:42:02.962Z,23.43
2018-04-29T02:44:30.530Z,21.70
2018-04-29T02:46:58.092Z,20.90
2018-04-29T02:49:25.613Z,20.40
2018-04-29T02:51:53.150Z,20.37
2018-04-29T02:54:20.772Z,19.80
2018-04-29T02:56:48.326Z,20.30
2018-04-29T02:59:15.882Z,21.50
2018-04-29T03:01:43.415Z,21.00
2018-04-29T03:04:10.991Z,21.87
2018-04-29T03:06:38.522Z,20.23
2018-04-29T03:09:06.835Z,20.40
2018-04-29T03:11:34.384Z,21.13
2018-04-29T03:14:02.120Z,20.20
2018-04-29T03:16:30.422Z,20.67
2018-04-29T03:18:57.968Z,20.40
2018-04-29T03:21:26.533Z,20.73
2018-04-29T03:23:54.854Z,20.13
2018-04-29T03:26:22.383Z,20.27
2018-04-29T03:28:49.982Z,20.17
2018-04-29T03:31:17.649Z,19.40
2018-04-29T03:33:45.202Z,22.13
2018-04-29T03:36:12.721Z,21.70
2018-04-29T03:38:40.262Z,19.00
2018-04-29T03:41:08.560Z,21.53
2018-04-29T03:43:36.081Z,21.90
2018-04-29T03:46:03.629Z,21.97
2018-04-29T03:48:32.675Z,20.20
2018-04-29T03:51:00.352Z,19.40
2018-04-29T03:53:27.910Z,20.17
2018-04-29T03:55:55.493Z,20.10
2018-04-29T03:58:34.971Z,20.00
2018-04-29T04:01:15.448Z,19.10
2018-04-29T04:03:55.119Z,19.37
2018-04-29T04:06:22.633Z,19.37
2018-04-29T04:08:50.933Z,20.60
2018-04-29T04:11:18.480Z,21.80
2018-04-29T04:13:45.993Z,21.40
2018-04-29T04:16:13.510Z,20.37
2018-04-29T04:18:41.068Z,20.00
2018-04-29T04:21:08.633Z,20.50
2018-04-29T04:23:36.211Z,22.40
2018-04-29T04:26:03.859Z,20.57
2018-04-29T04:28:31.397Z,22.20
2018-04-29T04:30:58.913Z,20.80
2018-04-29T04:33:26.822Z,23.37
2018-04-29T04:35:54.655Z,21.80
2018-04-29T04:38:22.953Z,20.37
2018-04-29T04:40:50.501Z,22.70
2018-04-29T04:43:18.798Z,22.80
2018-04-29T04:45:46.362Z,21.90
2018-04-29T04:48:13.904Z,21.73
2018-04-29T04:50:41.452Z,21.33
2018-04-29T04:53:09.735Z,23.43
2018-04-29T04:55:37.299Z,21.40
2018-04-29T04:58:04.965Z,21.73
2018-04-29T05:00:32.435Z,22.03
2018-04-29T05:02:59.992Z,20.17
2018-04-29T05:05:27.554Z,20.80
2018-04-29T05:07:55.153Z,19.87
2018-04-29T05:10:22.770Z,19.67
2018-04-29T05:12:50.320Z,19.73
2018-04-29T05:15:17.845Z,20.33
2018-04-29T05:17:46.175Z,20.03
2018-04-29T05:20:13.730Z,18.10
2018-04-29T05:22:41.251Z,19.53
2018-04-29T05:25:09.660Z,19.40
2018-04-29T05:27:37.185Z,19.93
2018-04-29T05:30:05.496Z,19.03
2018-04-29T05:32:33.056Z,19.93
2018-04-29T05:35:00.586Z,19.57
2018-04-29T05:37:28.115Z,20.30
2018-04-29T05:39:55.653Z,20.03
2018-04-29T05:42:23.310Z,18.87
2018-04-29T05:44:50.849Z,18.90
2018-04-29T05:47:18.419Z,19.10
2018-04-29T05:49:46.032Z,18.90
2018-04-29T05:52:13.644Z,19.43
2018-04-29T05:54:41.210Z,18.73
2018-04-29T05:57:08.750Z,19.47
2018-04-29T05:59:36.308Z,20.20
2018-04-29T06:02:03.871Z,19.13
2018-04-29T06:04:31.389Z,18.30
2018-04-29T06:06:59.003Z,19.07
2018-04-29T06:09:26.548Z,18.03
2018-04-29T06:11:54.061Z,19.13
2018-04-29T06:14:22.362Z,19.57
2018-04-29T06:16:49.932Z,19.33
2018-04-29T06:19:17.484Z,19.17
2018-04-29T06:21:45.866Z,18.80
2018-04-29T06:24:13.433Z,19.00
2018-04-29T06:26:40.999Z,19.07
2018-04-29T06:29:08.540Z,18.80
2018-04-29T06:31:36.110Z,19.50
2018-04-29T06:34:03.679Z,19.70
2018-04-29T06:36:31.216Z,17.77
2018-04-29T06:38:58.794Z,18.03
2018-04-29T06:41:26.331Z,18.27
2018-04-29T06:43:53.852Z,18.77
2018-04-29T06:46:22.173Z,17.93
2018-04-29T06:48:49.712Z,19.40
2018-04-29T06:51:17.239Z,18.60
2018-04-29T06:53:45.559Z,17.67
2018-04-29T06:56:13.098Z,18.70
2018-04-29T06:58:40.667Z,18.40
2018-04-29T07:01:08.249Z,17.77
2018-04-29T07:03:35.765Z,16.60
2018-04-29T07:06:04.089Z,18.40
2018-04-29T07:08:31.639Z,18.20
2018-04-29T07:10:59.306Z,17.07
2018-04-29T07:13:26.869Z,17.43
2018-04-29T07:15:54.411Z,16.73
2018-04-29T07:18:21.974Z,17.63
2018-04-29T07:20:49.504Z,17.70
2018-04-29T07:23:17.051Z,16.93
2018-04-29T07:25:45.457Z,16.47
2018-04-29T07:28:12.977Z,16.23
2018-04-29T07:30:41.396Z,17.37
2018-04-29T07:33:08.953Z,16.87
2018-04-29T07:35:36.496Z,16.57
2018-04-29T07:38:04.031Z,14.43
2018-04-29T07:40:32.360Z,13.47
2018-04-29T07:42:59.882Z,15.13
2018-04-29T07:45:28.165Z,14.93
2018-04-29T07:47:55.734Z,9.37
2018-04-29T07:50:23.308Z,8.47
2018-04-29T07:52:50.843Z,7.43
2018-04-29T07:55:18.626Z,6.63
2018-04-29T07:57:46.193Z,6.20
2018-04-29T08:00:13.713Z,6.93
2018-04-29T08:02:42.037Z,5.90
2018-04-29T08:05:09.551Z,6.37
2018-04-29T08:07:37.097Z,6.80
2018-04-29T08:10:05.405Z,5.70
2018-04-29T08:12:32.931Z,6.00
2018-04-29T08:15:01.239Z,6.30
2018-04-29T08:17:28.781Z,6.50
2018-04-29T08:19:56.304Z,6.10
2018-04-29T08:22:23.860Z,6.00
2018-04-29T08:24:51.482Z,6.70
2018-04-29T08:27:19.046Z,6.00
2018-04-29T08:29:46.572Z,6.10
2018-04-29T08:32:14.263Z,5.27
2018-04-29T08:34:41.806Z,6.03
2018-04-29T08:37:09.371Z,6.80
2018-04-29T08:39:36.919Z,6.50
2018-04-29T08:42:04.429Z,7.27
2018-04-29T08:44:31.942Z,6.80
2018-04-29T08:46:59.616Z,7.10
2018-04-29T08:49:27.199Z,7.70
2018-04-29T08:51:55.503Z,6.97
2018-04-29T08:54:23.831Z,7.30
2018-04-29T08:56:51.356Z,7.90
2018-04-29T08:59:18.915Z,8.20
2018-04-29T09:01:46.473Z,7.30
2018-04-29T09:04:14.000Z,9.10
2018-04-29T09:06:41.540Z,8.47
2018-04-29T09:09:09.106Z,8.93
2018-04-29T09:11:36.687Z,8.77
2018-04-29T09:14:04.989Z,8.90
2018-04-29T09:16:32.566Z,9.20
2018-04-29T09:19:00.084Z,9.30
2018-04-29T09:21:27.674Z,9.67
2018-04-29T09:23:55.248Z,9.47
2018-04-29T09:26:22.799Z,10.00
2018-04-29T09:28:50.332Z,11.10
2018-04-29T09:31:17.910Z,11.10
2018-04-29T09:33:45.448Z,9.30
2018-04-29T09:36:13.770Z,9.67
2018-04-29T09:38:41.325Z,9.77
2018-04-29T09:41:08.841Z,9.77
2018-04-29T09:43:37.196Z,10.13
2018-04-29T09:46:04.728Z,9.97
2018-04-29T09:48:32.275Z,9.40
2018-04-29T09:50:59.817Z,9.40
2018-04-29T09:53:27.376Z,10.37
2018-04-29T09:55:54.911Z,9.30
2018-04-29T09:58:23.227Z,10.40
2018-04-29T10:00:51.288Z,10.10
2018-04-29T10:03:19.528Z,9.93
2018-04-29T10:05:47.818Z,10.43
2018-04-29T10:08:15.371Z,9.80
2018-04-29T10:10:42.966Z,10.70
2018-04-29T10:13:10.489Z,9.90
2018-04-29T10:15:38.086Z,10.20
2018-04-29T10:18:05.606Z,10.77
2018-04-29T10:20:33.145Z,10.10
2018-04-29T10:23:01.472Z,9.90
2018-04-29T10:25:28.995Z,10.20
2018-04-29T10:27:57.331Z,9.80
2018-04-29T10:30:24.954Z,10.20
2018-04-29T10:32:52.618Z,10.97
2018-04-29T10:35:20.071Z,10.73
2018-04-29T10:37:47.734Z,11.40
2018-04-29T10:40:15.321Z,11.77
2018-04-29T10:42:42.852Z,11.70
2018-04-29T10:45:10.418Z,12.60
2018-04-29T10:47:38.094Z,11.93
2018-04-29T10:50:05.644Z,11.40
2018-04-29T10:52:33.263Z,12.00
2018-04-29T10:55:00.732Z,11.83
2018-04-29T10:57:28.266Z,11.60
2018-04-29T10:59:56.592Z,12.07
2018-04-29T11:02:24.103Z,12.33
2018-04-29T11:04:52.397Z,11.50
2018-04-29T11:07:19.963Z,11.30
2018-04-29T11:09:47.539Z,11.63
2018-04-29T11:12:15.069Z,11.37
2018-04-29T11:14:42.645Z,11.90
2018-04-29T11:17:10.161Z,12.17
2018-04-29T11:19:37.696Z,11.90
2018-04-29T11:22:05.300Z,11.50
2018-04-29T11:24:33.601Z,13.47
2018-04-29T11:27:01.471Z,13.37
2018-04-29T11:29:29.002Z,13.53
2018-04-29T11:31:56.533Z,13.30
2018-04-29T11:34:24.092Z,13.30
2018-04-29T11:36:51.622Z,14.10
2018-04-29T11:39:19.159Z,13.57
2018-04-29T11:41:46.701Z,14.00
2018-04-29T11:44:14.235Z,13.07
2018-04-29T11:46:42.564Z,13.27
2018-04-29T11:49:10.086Z,14.63
2018-04-29T11:51:37.609Z,14.53
2018-04-29T11:54:05.164Z,14.10
2018-04-29T11:56:32.785Z,13.13
2018-04-29T11:59:00.363Z,13.90
2018-04-29T12:01:27.955Z,13.77
2018-04-29T12:03:55.473Z,14.70
2018-04-29T12:06:23.031Z,13.77
2018-04-29T12:08:50.556Z,12.40
2018-04-29T12:11:18.894Z,12.90
2018-04-29T12:13:47.184Z,13.67
2018-04-29T12:16:14.816Z,14.07
2018-04-29T12:18:42.459Z,13.50
2018-04-29T12:21:10.020Z,13.30
2018-04-29T12:23:37.688Z,13.53
2018-04-29T12:26:05.241Z,13.10
2018-04-29T12:28:32.772Z,12.40
2018-04-29T12:31:00.342Z,12.27
2018-04-29T12:33:27.872Z,14.00
2018-04-29T12:35:55.408Z,13.23
2018-04-29T12:38:22.957Z,13.03
2018-04-29T12:40:50.477Z,13.70
2018-04-29T12:43:17.996Z,12.90
2018-04-29T12:45:46.428Z,13.43
2018-04-29T12:48:13.969Z,12.57
2018-04-29T12:50:41.649Z,13.00
2018-04-29T12:53:09.203Z,11.87
2018-04-29T12:55:36.760Z,11.30
2018-04-29T12:58:04.310Z,12.07
2018-04-29T13:00:31.884Z,12.23
2018-04-29T13:03:00.451Z,12.43
2018-04-29T13:05:28.027Z,10.80
2018-04-29T13:07:55.589Z,11.57
2018-04-29T13:10:23.119Z,11.47
2018-04-29T13:12:50.642Z,11.27
2018-04-29T13:15:18.961Z,12.00
2018-04-29T13:17:46.481Z,11.40
2018-04-29T13:20:14.800Z,11.20
2018-04-29T13:22:42.368Z,10.87
2018-04-29T13:25:09.911Z,11.07
2018-04-29T13:27:38.058Z,10.50
2018-04-29T13:30:06.360Z,11.50
2018-04-29T13:32:33.913Z,11.00
2018-04-29T13:35:01.500Z,11.07
2018-04-29T13:37:29.019Z,11.23
2018-04-29T13:39:56.567Z,11.27
2018-04-29T13:42:24.906Z,10.83
2018-04-29T13:44:52.423Z,11.23
2018-04-29T13:47:20.001Z,11.60
2018-04-29T13:49:47.517Z,10.83
2018-04-29T13:52:15.877Z,10.40
2018-04-29T13:54:43.378Z,12.03
2018-04-29T13:57:10.942Z,11.03
2018-04-29T13:59:38.506Z,10.90
2018-04-29T14:02:06.160Z,10.70
2018-04-29T14:04:33.705Z,10.97
2018-04-29T14:07:01.289Z,11.03
2018-04-29T14:09:28.951Z,10.07
2018-04-29T14:11:56.484Z,10.83
2018-04-29T14:14:24.019Z,10.07
2018-04-29T14:16:52.334Z,10.50
2018-04-29T14:19:19.864Z,10.53
2018-04-29T14:21:48.145Z,10.97
2018-04-29T14:24:15.734Z,11.03
2018-04-29T14:26:43.267Z,10.63
2018-04-29T14:29:10.782Z,10.67
2018-04-29T14:31:38.430Z,11.80
2018-04-29T14:34:06.072Z,11.57
2018-04-29T14:36:34.535Z,10.97
2018-04-29T14:39:02.109Z,10.90
2018-04-29T14:41:29.658Z,12.20
2018-04-29T14:43:57.250Z,11.07
2018-04-29T14:46:24.827Z,12.47
2018-04-29T14:48:52.423Z,11.63
2018-04-29T14:51:20.110Z,12.40
2018-04-29T14:53:47.659Z,13.00
2018-04-29T14:56:15.178Z,13.07
2018-04-29T14:58:43.463Z,11.77
2018-04-29T15:01:11.901Z,12.40
2018-04-29T15:03:39.547Z,11.83
2018-04-29T15:06:07.097Z,12.20
2018-04-29T15:08:34.660Z,11.50
2018-04-29T15:11:02.223Z,13.07
2018-04-29T15:13:29.760Z,12.40
2018-04-29T15:15:57.327Z,13.20
2018-04-29T15:18:36.974Z,13.63
2018-04-29T15:21:04.534Z,13.73
2018-04-29T15:23:32.089Z,12.07
2018-04-29T15:25:59.663Z,12.37
2018-04-29T15:28:27.223Z,14.10
2018-04-29T15:30:54.790Z,15.20
2018-04-29T15:33:22.428Z,14.30
2018-04-29T15:35:50.008Z,14.57
2018-04-29T15:38:17.640Z,13.83
2018-04-29T15:40:45.199Z,16.37
2018-04-29T15:43:12.750Z,17.73
2018-04-29T15:45:40.294Z,19.47
2018-04-29T15:48:07.822Z,19.47
2018-04-29T15:50:35.374Z,19.60
2018-04-29T15:53:03.002Z,21.07
2018-04-29T15:55:30.551Z,22.00
2018-04-29T15:57:58.117Z,21.30
2018-04-29T16:00:25.683Z,21.07
2018-04-29T16:02:53.211Z,21.23
2018-04-29T16:05:20.788Z,22.37
2018-04-29T16:07:48.341Z,22.70
2018-04-29T16:10:15.902Z,21.97
2018-04-29T16:12:43.560Z,22.57
2018-04-29T16:15:11.081Z,23.90
2018-04-29T16:17:41.048Z,23.63
2018-04-29T16:20:08.598Z,23.30
2018-04-29T16:22:36.337Z,22.17
2018-04-29T16:25:03.918Z,24.80
2018-04-29T16:27:31.488Z,25.20
2018-04-29T16:29:59.034Z,22.90
2018-04-29T16:32:26.591Z,24.30
2018-04-29T16:34:54.108Z,25.50
2018-04-29T16:37:22.393Z,25.07
2018-04-29T16:39:50.715Z,24.63
2018-04-29T16:42:18.253Z,24.37
2018-04-29T16:44:45.776Z,25.27
2018-04-29T16:47:14.099Z,25.50
2018-04-29T16:49:41.646Z,26.07
2018-04-29T16:52:09.219Z,26.00
2018-04-29T16:54:36.764Z,27.67
2018-04-29T16:57:04.289Z,28.57
2018-04-29T16:59:32.597Z,28.93
2018-04-29T17:02:00.152Z,27.60
2018-04-29T17:04:27.709Z,28.33
2018-04-29T17:06:55.243Z,27.00
2018-04-29T17:09:23.573Z,27.90
2018-04-29T17:11:51.111Z,28.63
2018-04-29T17:14:18.644Z,27.50
2018-04-29T17:16:46.955Z,26.90
2018-04-29T17:19:14.506Z,28.40
2018-04-29T17:21:42.035Z,27.53
2018-04-29T17:24:10.354Z,28.13
2018-04-29T17:26:37.919Z,28.07
2018-04-29T17:29:05.491Z,27.40
2018-04-29T17:31:33.025Z,27.20
2018-04-29T17:34:00.591Z,26.17
2018-04-29T17:36:28.118Z,27.40
2018-04-29T17:38:55.715Z,25.37
2018-04-29T17:41:23.261Z,26.63
2018-04-29T17:43:50.790Z,26.53
2018-04-29T17:46:19.088Z,24.97
2018-04-29T17:48:46.652Z,26.30
2018-04-29T17:51:14.237Z,25.20
2018-04-29T17:53:41.884Z,25.00
2018-04-29T17:56:09.500Z,25.20
2018-04-29T17:58:36.980Z,26.67
2018-04-29T18:01:04.516Z,25.47
2018-04-29T18:03:32.084Z,25.90
2018-04-29T18:05:59.673Z,27.50
2018-04-29T18:08:27.210Z,26.50
2018-04-29T18:10:54.777Z,28.30
2018-04-29T18:13:22.297Z,28.20
2018-04-29T18:15:50.600Z,28.20
2018-04-29T18:18:18.171Z,28.40
2018-04-29T18:20:45.719Z,29.93
2018-04-29T18:23:13.304Z,26.50
2018-04-29T18:25:40.857Z,30.37
2018-04-29T18:28:08.377Z,30.70
2018-04-29T18:30:36.680Z,31.17
2018-04-29T18:33:04.260Z,31.80
2018-04-29T18:35:31.782Z,29.40
2018-04-29T18:37:59.292Z,33.10
2018-04-29T18:40:26.852Z,30.80
2018-04-29T18:42:55.165Z,32.80
2018-04-29T18:45:22.734Z,32.40
2018-04-29T18:47:50.327Z,32.00
2018-04-29T18:50:17.852Z,32.33
2018-04-29T18:52:45.454Z,33.37
2018-04-29T18:55:13.098Z,32.73
2018-04-29T18:57:40.673Z,32.30
2018-04-29T19:00:08.217Z,32.20
2018-04-29T19:02:36.089Z,32.37
2018-04-29T19:05:03.652Z,32.00
2018-04-29T19:07:31.199Z,31.57
2018-04-29T19:09:58.762Z,33.07
2018-04-29T19:12:26.290Z,32.17
2018-04-29T19:14:54.283Z,33.07
2018-04-29T19:17:21.870Z,33.00
2018-04-29T19:19:49.404Z,32.60
2018-04-29T19:22:16.953Z,33.30
2018-04-29T19:24:44.536Z,34.67
2018-04-29T19:27:12.394Z,34.70
2018-04-29T19:29:39.938Z,32.07
2018-04-29T19:32:07.507Z,32.27
2018-04-29T19:34:35.048Z,34.30
2018-04-29T19:37:04.725Z,33.83
2018-04-29T19:39:32.277Z,32.60
2018-04-29T19:42:00.584Z,32.70
2018-04-29T19:44:28.124Z,33.57
2018-04-29T19:46:56.457Z,34.87
2018-04-29T19:49:23.984Z,33.63
2018-04-29T19:51:51.564Z,32.20
2018-04-29T19:54:19.148Z,33.40
2018-04-29T19:56:47.443Z,33.20
2018-04-29T19:59:15.780Z,33.30
2018-04-29T20:01:43.348Z,35.57
2018-04-29T20:04:10.975Z,34.03
2018-04-29T20:06:38.509Z,31.70
2018-04-29T20:09:06.929Z,34.87
2018-04-29T20:11:34.514Z,34.50
2018-04-29T20:14:02.029Z,32.53
2018-04-29T20:16:29.604Z,35.20
2018-04-29T20:18:57.590Z,34.93
2018-04-29T20:21:25.127Z,34.33
2018-04-29T20:23:52.743Z,35.72
2018-04-29T20:26:21.150Z,40.30
2018-04-29T20:28:48.681Z,41.87
2018-04-29T20:31:17.020Z,40.43
2018-04-29T20:33:44.545Z,43.40
2018-04-29T20:36:12.060Z,45.07
2018-04-29T20:38:40.412Z,41.33
2018-04-29T20:41:07.944Z,44.90
2018-04-29T20:43:35.475Z,51.30
2018-04-29T20:46:03.819Z,47.57
2018-04-29T20:48:31.374Z,48.90
2018-04-29T20:50:58.898Z,48.00
2018-04-29T20:53:26.475Z,52.90
2018-04-29T20:55:54.012Z,49.23
2018-04-29T20:58:21.557Z,53.73
2018-04-29T21:00:49.120Z,52.63
2018-04-29T21:03:16.650Z,50.80
2018-04-29T21:05:44.948Z,50.40
2018-04-29T21:08:12.516Z,39.27
2018-04-29T21:10:40.040Z,45.77
2018-04-29T21:13:08.346Z,39.30
2018-04-29T21:15:35.903Z,39.57
2018-04-29T21:18:03.435Z,43.87
2018-04-29T21:20:31.737Z,40.57
2018-04-29T21:22:59.297Z,41.77
2018-04-29T21:25:26.822Z,40.77
2018-04-29T21:27:55.138Z,42.47
2018-04-29T21:30:22.711Z,42.40
2018-04-29T21:32:50.254Z,43.10
2018-04-29T21:35:17.796Z,43.67
2018-04-29T21:37:45.345Z,40.37
2018-04-29T21:40:13.654Z,35.77
2018-04-29T21:42:41.178Z,42.47
2018-04-29T21:45:09.507Z,36.90
2018-04-29T21:47:37.034Z,37.90
2018-04-29T21:50:04.605Z,39.90
2018-04-29T21:52:32.167Z,32.03
2018-04-29T21:54:59.736Z,40.37
2018-04-29T21:57:27.261Z,41.00
2018-04-29T21:59:54.829Z,39.00
2018-04-29T22:02:22.348Z,43.30
2018-04-29T22:04:49.881Z,39.50
2018-04-29T22:07:17.445Z,39.63
2018-04-29T22:09:44.983Z,40.83
2018-04-29T22:12:12.527Z,41.70
2018-04-29T22:14:40.096Z,37.80
2018-04-29T22:17:07.633Z,34.60
2018-04-29T22:19:35.148Z,38.50
2018-04-29T22:22:03.545Z,39.87
2018-04-29T22:24:31.014Z,41.87
2018-04-29T22:26:59.335Z,35.30
2018-04-29T22:29:26.964Z,34.97
2018-04-29T22:31:54.497Z,41.70
2018-04-29T22:34:22.803Z,33.37
2018-04-29T22:36:50.354Z,37.20
2018-04-29T22:39:17.881Z,37.67
2018-04-29T22:41:46.172Z,37.90
2018-04-29T22:44:14.576Z,36.07
2018-04-29T22:46:42.153Z,40.03
2018-04-29T22:49:09.673Z,39.60
2018-04-29T22:51:37.250Z,40.10
2018-04-29T22:54:04.780Z,37.17
2018-04-29T22:56:33.122Z,40.13
2018-04-29T22:59:00.677Z,40.80
2018-04-29T23:01:28.211Z,35.10
2018-04-29T23:03:55.817Z,36.87
2018-04-29T23:06:23.343Z,38.00
2018-04-29T23:08:50.863Z,37.37
2018-04-29T23:11:18.391Z,38.50
2018-04-29T23:13:45.947Z,37.80
2018-04-29T23:16:13.470Z,36.03
2018-04-29T23:18:41.010Z,38.70
2018-04-29T23:21:08.554Z,36.00
2018-04-29T23:23:36.067Z,32.80
2018-04-29T23:26:03.593Z,37.87
2018-04-29T23:28:31.148Z,30.10
2018-04-29T23:30:58.683Z,41.30
2018-04-29T23:33:26.213Z,41.30
2018-04-29T23:35:53.764Z,37.47
2018-04-29T23:38:21.286Z,35.07
2018-04-29T23:40:48.808Z,27.97
2018-04-29T23:43:17.119Z,36.83
2018-04-29T23:45:44.651Z,40.00
2018-04-29T23:48:12.183Z,34.97
2018-04-29T23:50:39.748Z,36.67
2018-04-29T23:53:08.053Z,38.97
2018-04-29T23:55:35.573Z,42.50
2018-04-29T23:58:03.185Z,44.03
